createdAt,value
2018-09-17T00:00:35.957Z,25.70
2018-09-17T00:03:04.820Z,25.80
2018-09-17T00:05:33.705Z,25.80
2018-09-17T00:08:02.544Z,25.80
2018-09-17T00:10:31.428Z,25.80
2018-09-17T00:13:00.321Z,26.10
2018-09-17T00:15:29.223Z,26.70
2018-09-17T00:17:58.062Z,28.80
2018-09-17T00:20:26.936Z,27.90
2018-09-17T00:22:55.821Z,27.80
2018-09-17T00:25:24.647Z,28.00
2018-09-17T00:27:53.468Z,27.80
2018-09-17T00:30:22.355Z,27.80
2018-09-17T00:32:51.239Z,27.60
2018-09-17T00:35:20.111Z,27.80
2018-09-17T00:37:48.916Z,27.90
2018-09-17T00:40:17.833Z,28.00
2018-09-17T00:42:46.683Z,28.20
2018-09-17T00:45:15.804Z,28.60
2018-09-17T00:47:44.654Z,30.00
2018-09-17T00:50:13.515Z,29.10
2018-09-17T00:52:42.379Z,30.10
2018-09-17T00:55:11.256Z,30.10
2018-09-17T00:57:40.127Z,30.40
2018-09-17T01:00:08.928Z,30.60
2018-09-17T01:02:37.774Z,31.10
2018-09-17T01:05:06.720Z,31.40
2018-09-17T01:07:35.664Z,31.20
2018-09-17T01:10:04.655Z,31.20
2018-09-17T01:12:33.474Z,31.10
2018-09-17T01:15:02.363Z,31.20
2018-09-17T01:17:31.247Z,31.80
2018-09-17T01:20:00.063Z,31.90
2018-09-17T01:22:29.009Z,32.30
2018-09-17T01:24:57.891Z,32.80
2018-09-17T01:27:26.763Z,33.20
2018-09-17T01:29:55.640Z,33.30
2018-09-17T01:32:24.510Z,33.80
2018-09-17T01:34:53.356Z,34.40
2018-09-17T01:37:22.216Z,34.90
2018-09-17T01:39:51.071Z,34.80
2018-09-17T01:42:19.934Z,35.70
2018-09-17T01:44:48.771Z,35.80
2018-09-17T01:47:17.661Z,35.70
2018-09-17T01:49:46.524Z,35.00
2018-09-17T01:52:15.558Z,34.90
2018-09-17T01:54:44.725Z,34.50
2018-09-17T01:57:13.737Z,34.10
2018-09-17T01:59:42.571Z,33.60
2018-09-17T02:02:11.388Z,33.20
2018-09-17T02:04:40.236Z,33.30
2018-09-17T02:07:09.283Z,33.00
2018-09-17T02:09:41.896Z,32.70
2018-09-17T02:12:12.346Z,32.50
2018-09-17T02:14:41.812Z,32.50
2018-09-17T02:17:10.715Z,33.20
2018-09-17T02:19:39.817Z,33.30
2018-09-17T02:22:09.438Z,33.40
2018-09-17T02:24:38.315Z,33.70
2018-09-17T02:27:07.187Z,34.00
2018-09-17T02:29:36.032Z,33.90
2018-09-17T02:32:04.952Z,34.10
2018-09-17T02:34:33.804Z,34.10
2018-09-17T02:37:02.695Z,34.30
2018-09-17T02:39:31.550Z,34.60
2018-09-17T02:42:00.416Z,34.90
2018-09-17T02:44:29.333Z,34.90
2018-09-17T02:46:58.191Z,35.20
2018-09-17T02:49:26.999Z,35.30
2018-09-17T02:51:55.856Z,35.80
2018-09-17T02:54:24.728Z,36.20
2018-09-17T02:56:53.565Z,35.40
2018-09-17T02:59:22.410Z,37.20
2018-09-17T03:01:51.313Z,37.40
2018-09-17T03:04:20.172Z,38.00
2018-09-17T03:06:49.052Z,38.20
2018-09-17T03:09:17.953Z,38.70
2018-09-17T03:11:46.874Z,38.40
2018-09-17T03:14:15.718Z,38.60
2018-09-17T03:17:01.936Z,38.50
2018-09-17T03:19:30.744Z,38.60
2018-09-17T03:21:59.602Z,38.90
2018-09-17T03:24:28.460Z,39.50
2018-09-17T03:26:57.339Z,39.10
2018-09-17T03:29:26.234Z,40.90
2018-09-17T03:31:55.082Z,41.50
2018-09-17T03:34:23.966Z,42.10
2018-09-17T03:36:52.804Z,41.80
2018-09-17T03:39:21.713Z,41.70
2018-09-17T03:41:50.569Z,42.60
2018-09-17T03:44:19.390Z,42.50
2018-09-17T03:46:48.331Z,42.60
2018-09-17T03:49:17.167Z,42.40
2018-09-17T03:51:46.023Z,42.10
2018-09-17T03:54:14.938Z,42.10
2018-09-17T03:56:43.829Z,41.90
2018-09-17T03:59:12.688Z,41.70
2018-09-17T04:01:41.618Z,41.90
2018-09-17T04:04:10.475Z,42.40
2018-09-17T04:06:39.354Z,43.50
2018-09-17T04:09:08.834Z,44.10
2018-09-17T04:11:37.655Z,44.40
2018-09-17T04:14:07.946Z,44.20
2018-09-17T04:16:37.366Z,44.80
2018-09-17T04:19:06.287Z,45.50
2018-09-17T04:21:35.151Z,45.50
2018-09-17T04:24:04.027Z,45.30
2018-09-17T04:26:32.912Z,45.90
2018-09-17T04:29:01.803Z,47.10
2018-09-17T04:31:30.712Z,47.20
2018-09-17T04:33:59.548Z,46.60
2018-09-17T04:36:28.389Z,45.70
2018-09-17T04:38:57.260Z,45.50
2018-09-17T04:41:26.102Z,45.00
2018-09-17T04:43:54.989Z,44.80
2018-09-17T04:46:23.877Z,44.60
2018-09-17T04:48:52.955Z,44.40
2018-09-17T04:51:21.814Z,44.50
2018-09-17T04:53:50.679Z,44.80
2018-09-17T04:56:19.539Z,44.70
2018-09-17T04:58:48.616Z,44.50
2018-09-17T05:01:17.503Z,43.70
2018-09-17T05:03:46.334Z,43.70
2018-09-17T05:06:15.142Z,43.40
2018-09-17T05:08:43.960Z,43.70
2018-09-17T05:11:13.203Z,43.20
2018-09-17T05:13:42.011Z,42.50
2018-09-17T05:16:11.774Z,43.00
2018-09-17T05:18:40.662Z,42.00
2018-09-17T05:21:09.575Z,40.80
2018-09-17T05:23:38.452Z,40.90
2018-09-17T05:26:07.335Z,40.80
2018-09-17T05:28:36.241Z,40.90
2018-09-17T05:31:05.299Z,41.00
2018-09-17T05:33:34.197Z,41.10
2018-09-17T05:36:03.081Z,39.40
2018-09-17T05:38:31.975Z,38.10
2018-09-17T05:41:00.805Z,37.80
2018-09-17T05:43:29.714Z,36.90
2018-09-17T05:45:58.581Z,36.60
2018-09-17T05:48:27.452Z,36.40
2018-09-17T05:50:56.316Z,36.30
2018-09-17T05:53:25.152Z,36.50
2018-09-17T05:55:54.016Z,34.90
2018-09-17T05:58:22.934Z,33.90
2018-09-17T06:00:51.773Z,32.90
2018-09-17T06:03:20.660Z,31.90
2018-09-17T06:05:49.514Z,30.70
2018-09-17T06:08:18.353Z,30.90
2018-09-17T06:10:47.232Z,30.90
2018-09-17T06:13:16.120Z,30.50
2018-09-17T06:15:45.084Z,30.00
2018-09-17T06:18:13.989Z,30.10
2018-09-17T06:20:42.918Z,28.70
2018-09-17T06:23:11.802Z,27.60
2018-09-17T06:25:40.627Z,26.80
2018-09-17T06:28:09.530Z,26.30
2018-09-17T06:30:38.411Z,25.70
2018-09-17T06:33:07.244Z,25.10
2018-09-17T06:35:36.124Z,25.30
2018-09-17T06:38:05.048Z,23.50
2018-09-17T06:40:33.961Z,24.30
2018-09-17T06:43:02.817Z,23.10
2018-09-17T06:45:31.722Z,22.70
2018-09-17T06:48:00.580Z,21.60
2018-09-17T06:50:29.435Z,20.80
2018-09-17T06:52:58.243Z,20.80
2018-09-17T06:55:27.120Z,20.00
2018-09-17T06:57:55.995Z,19.70
2018-09-17T07:00:24.861Z,19.00
2018-09-17T07:02:53.753Z,19.70
2018-09-17T07:05:22.635Z,19.70
2018-09-17T07:07:51.553Z,20.00
2018-09-17T07:10:20.423Z,20.00
2018-09-17T07:12:49.314Z,18.50
2018-09-17T07:15:18.671Z,18.20
2018-09-17T07:17:47.536Z,18.30
2018-09-17T07:20:16.356Z,18.30
2018-09-17T07:22:45.183Z,17.70
2018-09-17T07:25:14.098Z,17.50
2018-09-17T07:27:42.917Z,17.20
2018-09-17T07:30:11.789Z,15.70
2018-09-17T07:32:40.691Z,16.00
2018-09-17T07:35:09.573Z,15.60
2018-09-17T07:37:38.463Z,15.60
2018-09-17T07:40:07.350Z,14.70
2018-09-17T07:42:36.257Z,13.20
2018-09-17T07:45:06.333Z,13.40
2018-09-17T07:47:35.208Z,13.60
2018-09-17T07:50:04.275Z,12.90
2018-09-17T07:52:33.171Z,12.60
2018-09-17T07:55:02.021Z,11.90
2018-09-17T07:57:30.914Z,11.00
2018-09-17T07:59:59.817Z,11.00
2018-09-17T08:02:28.741Z,10.90
2018-09-17T08:04:57.639Z,10.20
2018-09-17T08:07:26.499Z,9.80
2018-09-17T08:09:55.355Z,9.40
2018-09-17T08:12:24.207Z,9.90
2018-09-17T08:14:53.126Z,10.10
2018-09-17T08:17:22.001Z,9.20
2018-09-17T08:19:50.909Z,9.60
2018-09-17T08:22:19.802Z,8.60
2018-09-17T08:24:48.658Z,7.40
2018-09-17T08:27:17.546Z,6.30
2018-09-17T08:29:46.413Z,7.30
2018-09-17T08:32:15.259Z,7.10
2018-09-17T08:34:44.110Z,5.80
2018-09-17T08:37:12.975Z,5.90
2018-09-17T08:39:41.863Z,6.00
2018-09-17T08:42:10.704Z,5.90
2018-09-17T08:44:39.564Z,4.80
2018-09-17T08:47:08.432Z,4.40
2018-09-17T08:49:37.251Z,4.40
2018-09-17T08:52:06.319Z,4.40
2018-09-17T08:54:39.347Z,2.90
2018-09-17T08:57:13.400Z,2.90
2018-09-17T08:59:46.188Z,2.30
2018-09-17T09:02:16.430Z,1.30
2018-09-17T09:04:50.913Z,2.20
2018-09-17T09:07:25.317Z,1.20
2018-09-17T09:09:58.325Z,1.00
2018-09-17T09:12:31.315Z,1.40
2018-09-17T09:15:05.673Z,1.00
2018-09-17T09:17:34.552Z,1.00
2018-09-17T09:20:03.421Z,1.00
2018-09-17T09:22:32.294Z,1.00
2018-09-17T09:25:01.152Z,1.00
2018-09-17T09:27:29.973Z,1.00
2018-09-17T09:29:58.793Z,1.00
2018-09-17T09:32:27.648Z,1.00
2018-09-17T09:34:56.554Z,1.00
2018-09-17T09:37:25.455Z,1.00
2018-09-17T09:39:54.316Z,1.00
2018-09-17T09:42:23.177Z,1.00
2018-09-17T09:44:52.011Z,1.00
2018-09-17T09:47:20.867Z,1.00
2018-09-17T09:49:49.757Z,1.00
2018-09-17T09:52:18.668Z,1.00
2018-09-17T09:54:47.656Z,1.00
2018-09-17T09:57:16.502Z,1.00
2018-09-17T09:59:45.413Z,1.00
2018-09-17T10:02:19.707Z,1.00
2018-09-17T10:04:48.571Z,1.00
2018-09-17T10:07:17.401Z,1.00
2018-09-17T10:09:51.778Z,1.00
2018-09-17T10:12:25.817Z,1.00
2018-09-17T10:14:59.947Z,1.00
2018-09-17T10:17:34.151Z,1.00
2018-09-17T10:20:03.029Z,1.00
2018-09-17T10:22:31.888Z,1.00
2018-09-17T10:25:00.744Z,1.00
2018-09-17T10:27:29.620Z,1.00
2018-09-17T10:29:58.544Z,1.00
2018-09-17T10:32:27.312Z,1.00
2018-09-17T10:34:56.150Z,1.00
2018-09-17T10:37:25.059Z,1.00
2018-09-17T10:39:53.952Z,1.00
2018-09-17T10:42:22.875Z,1.00
2018-09-17T10:44:51.724Z,1.00
2018-09-17T10:47:20.605Z,1.00
2018-09-17T10:49:49.487Z,1.00
2018-09-17T10:52:18.386Z,1.00
2018-09-17T10:54:47.321Z,1.00
2018-09-17T10:57:16.192Z,1.00
2018-09-17T10:59:45.089Z,1.00
2018-09-17T11:02:13.983Z,1.00
2018-09-17T11:04:42.814Z,1.00
2018-09-17T11:07:11.686Z,1.00
2018-09-17T11:09:40.577Z,1.00
2018-09-17T11:12:09.419Z,1.00
2018-09-17T11:17:06.956Z,1.00
2018-09-17T11:19:35.769Z,1.00
2018-09-17T11:22:04.690Z,1.00
2018-09-17T11:24:33.597Z,1.00
2018-09-17T11:27:02.486Z,1.00
2018-09-17T11:29:31.322Z,1.00
2018-09-17T11:32:00.159Z,1.00
2018-09-17T11:34:29.005Z,1.00
2018-09-17T11:36:57.846Z,1.00
2018-09-17T11:39:26.694Z,1.00
2018-09-17T11:41:55.597Z,1.00
2018-09-17T11:44:24.431Z,1.00
2018-09-17T11:46:53.336Z,1.00
2018-09-17T11:49:22.228Z,1.00
2018-09-17T11:51:51.150Z,1.00
2018-09-17T11:54:19.970Z,1.00
2018-09-17T11:56:48.845Z,1.00
2018-09-17T11:59:17.735Z,1.00
2018-09-17T12:02:54.983Z,1.00
2018-09-17T12:05:29.165Z,1.00
2018-09-17T12:07:58.041Z,1.00
2018-09-17T12:10:26.871Z,1.00
2018-09-17T12:12:55.747Z,1.00
2018-09-17T12:15:24.591Z,1.00
2018-09-17T12:17:53.482Z,1.00
2018-09-17T12:20:22.374Z,1.00
2018-09-17T12:22:51.206Z,1.00
2018-09-17T12:25:20.089Z,1.00
2018-09-17T12:27:48.951Z,1.00
2018-09-17T12:30:17.763Z,1.00
2018-09-17T12:32:46.652Z,1.00
2018-09-17T12:35:15.537Z,1.00
2018-09-17T12:37:44.354Z,1.00
2018-09-17T12:40:13.193Z,1.00
2018-09-17T12:42:42.052Z,1.00
2018-09-17T12:45:10.848Z,1.00
2018-09-17T12:47:39.749Z,1.00
2018-09-17T12:50:08.596Z,1.00
2018-09-17T12:52:37.647Z,1.00
2018-09-17T12:55:06.466Z,1.00
2018-09-17T12:57:35.349Z,1.00
2018-09-17T13:00:04.725Z,1.00
2018-09-17T13:02:33.741Z,1.00
2018-09-17T13:05:02.646Z,1.00
2018-09-17T13:07:31.491Z,1.00
2018-09-17T13:10:00.339Z,1.00
2018-09-17T13:12:29.185Z,1.00
2018-09-17T13:14:58.075Z,1.00
2018-09-17T13:17:26.971Z,1.00
2018-09-17T13:19:55.865Z,1.00
2018-09-17T13:22:24.820Z,1.00
2018-09-17T13:24:53.694Z,1.00
2018-09-17T13:27:22.531Z,1.00
2018-09-17T13:29:51.436Z,1.00
2018-09-17T13:32:20.294Z,1.00
2018-09-17T13:34:49.155Z,1.00
2018-09-17T13:37:17.980Z,1.00
2018-09-17T13:39:46.883Z,1.00
2018-09-17T13:42:15.751Z,1.00
2018-09-17T13:44:44.617Z,1.00
2018-09-17T13:47:13.499Z,1.00
2018-09-17T13:49:42.419Z,1.00
2018-09-17T13:52:11.255Z,1.00
2018-09-17T13:54:40.131Z,1.00
2018-09-17T13:57:08.980Z,1.00
2018-09-17T13:59:37.820Z,1.00
2018-09-17T14:02:06.744Z,1.00
2018-09-17T14:04:35.745Z,1.00
2018-09-17T14:07:04.585Z,1.00
2018-09-17T14:09:33.453Z,1.00
2018-09-17T14:12:02.389Z,1.00
2018-09-17T14:14:31.215Z,1.00
2018-09-17T14:17:00.083Z,1.00
2018-09-17T14:19:28.916Z,1.00
2018-09-17T14:21:57.843Z,1.00
2018-09-17T14:24:26.680Z,1.00
2018-09-17T14:26:55.636Z,1.00
2018-09-17T14:29:24.488Z,1.00
2018-09-17T14:31:58.794Z,1.00
2018-09-17T14:34:27.641Z,1.00
2018-09-17T14:36:56.536Z,1.00
2018-09-17T14:39:25.471Z,1.00
2018-09-17T14:41:54.467Z,1.00
2018-09-17T14:44:23.352Z,1.00
2018-09-17T14:46:52.235Z,1.00
2018-09-17T14:49:21.091Z,1.00
2018-09-17T14:51:50.001Z,1.00
2018-09-17T14:54:18.919Z,1.00
2018-09-17T14:56:47.784Z,1.00
2018-09-17T14:59:16.585Z,1.00
2018-09-17T15:01:45.496Z,1.00
2018-09-17T15:04:14.460Z,1.00
2018-09-17T15:06:43.214Z,1.00
2018-09-17T15:09:12.034Z,1.00
2018-09-17T15:11:40.872Z,1.00
2018-09-17T15:14:10.482Z,1.00
2018-09-17T15:16:39.292Z,1.00
2018-09-17T15:19:08.162Z,1.00
2018-09-17T15:21:37.114Z,1.00
2018-09-17T15:24:06.110Z,1.00
2018-09-17T15:26:34.848Z,1.00
2018-09-17T15:29:03.704Z,1.00
2018-09-17T15:31:32.577Z,1.00
2018-09-17T15:34:01.435Z,1.00
2018-09-17T15:36:30.261Z,1.00
2018-09-17T15:38:59.115Z,1.00
2018-09-17T15:41:28.144Z,1.00
2018-09-17T15:43:56.894Z,1.00
2018-09-17T15:46:25.748Z,1.00
2018-09-17T15:48:54.615Z,1.00
2018-09-17T15:51:23.496Z,1.00
2018-09-17T15:53:52.423Z,1.00
2018-09-17T15:56:21.289Z,1.00
2018-09-17T15:58:50.132Z,1.00
2018-09-17T16:01:19.017Z,1.00
2018-09-17T16:03:47.865Z,1.00
2018-09-17T16:06:16.726Z,1.00
2018-09-17T16:08:45.632Z,1.00
2018-09-17T16:11:14.519Z,1.00
2018-09-17T16:13:43.415Z,1.00
2018-09-17T16:16:12.292Z,1.00
2018-09-17T16:18:41.132Z,1.00
2018-09-17T16:21:10.019Z,1.00
2018-09-17T16:23:38.873Z,1.00
2018-09-17T16:26:07.769Z,1.00
2018-09-17T16:28:36.699Z,1.00
2018-09-17T16:31:05.932Z,1.00
2018-09-17T16:33:34.823Z,1.00
2018-09-17T16:36:03.608Z,1.00
2018-09-17T16:38:32.549Z,1.00
2018-09-17T16:41:01.419Z,1.00
2018-09-17T16:43:30.382Z,1.00
2018-09-17T16:45:59.280Z,1.00
2018-09-17T16:48:28.129Z,1.00
2018-09-17T16:50:56.952Z,1.00
2018-09-17T16:53:25.919Z,1.00
2018-09-17T16:55:54.768Z,1.00
2018-09-17T16:58:23.688Z,1.00
2018-09-17T17:00:52.629Z,1.00
2018-09-17T17:03:21.441Z,1.00
2018-09-17T17:05:50.298Z,1.00
2018-09-17T17:08:19.168Z,1.00
2018-09-17T17:10:48.056Z,1.00
2018-09-17T17:13:16.887Z,1.00
2018-09-17T17:15:48.386Z,1.00
2018-09-17T17:18:19.232Z,1.00
2018-09-17T17:20:48.129Z,1.00
2018-09-17T17:23:17.022Z,1.00
2018-09-17T17:25:45.847Z,1.00
2018-09-17T17:28:14.777Z,1.00
2018-09-17T17:30:43.583Z,1.00
2018-09-17T17:33:12.506Z,1.00
2018-09-17T17:35:41.580Z,1.00
2018-09-17T17:38:10.464Z,1.00
2018-09-17T17:40:39.568Z,1.00
2018-09-17T17:43:08.260Z,1.00
2018-09-17T17:45:37.120Z,1.00
2018-09-17T17:48:06.177Z,1.00
2018-09-17T17:50:35.048Z,1.00
2018-09-17T17:53:03.894Z,1.00
2018-09-17T17:55:32.816Z,1.00
2018-09-17T17:58:01.737Z,1.00
2018-09-17T18:00:30.558Z,1.00
2018-09-17T18:02:59.408Z,1.00
2018-09-17T18:05:28.259Z,1.40
2018-09-17T18:07:57.126Z,1.70
2018-09-17T18:12:54.690Z,1.60
2018-09-17T18:15:23.641Z,2.40
2018-09-17T18:17:52.533Z,3.00
2018-09-17T18:20:21.406Z,4.20
2018-09-17T18:22:50.234Z,3.60
2018-09-17T18:25:19.092Z,3.70
2018-09-17T18:27:47.973Z,4.00
2018-09-17T18:30:17.040Z,4.20
2018-09-17T18:32:46.008Z,4.50
2018-09-17T18:35:14.840Z,4.60
2018-09-17T18:37:43.719Z,5.10
2018-09-17T18:40:12.589Z,5.10
2018-09-17T18:42:41.575Z,5.50
2018-09-17T18:45:10.356Z,6.10
2018-09-17T18:47:39.236Z,6.80
2018-09-17T18:50:08.189Z,7.30
2018-09-17T18:52:37.031Z,7.30
2018-09-17T18:55:05.922Z,7.20
2018-09-17T18:57:34.912Z,7.30
2018-09-17T19:00:03.861Z,7.60
2018-09-17T19:02:32.830Z,7.90
2018-09-17T19:05:01.744Z,8.40
2018-09-17T19:07:30.579Z,8.80
2018-09-17T19:09:59.460Z,9.30
2018-09-17T19:12:28.566Z,9.50
2018-09-17T19:15:02.914Z,9.40
2018-09-17T19:17:37.134Z,9.50
2018-09-17T19:20:07.358Z,9.70
2018-09-17T19:22:41.584Z,9.70
2018-09-17T19:25:12.236Z,10.00
2018-09-17T19:27:46.472Z,9.60
2018-09-17T19:30:15.792Z,9.70
2018-09-17T19:32:45.047Z,9.90
2018-09-17T19:35:13.911Z,10.20
2018-09-17T19:37:48.158Z,10.60
2018-09-17T19:40:18.600Z,10.50
2018-09-17T19:42:48.451Z,10.50
2018-09-17T19:45:22.803Z,10.60
2018-09-17T19:47:52.478Z,10.70
2018-09-17T19:51:24.796Z,10.60
2018-09-17T19:53:53.530Z,11.00
2018-09-17T19:56:22.361Z,11.40
2018-09-17T19:58:56.433Z,12.50
2018-09-17T20:01:25.280Z,12.40
2018-09-17T20:03:54.155Z,12.50
2018-09-17T20:06:25.407Z,13.20
2018-09-17T20:08:54.245Z,13.60
2018-09-17T20:11:23.147Z,13.10
2018-09-17T20:13:52.030Z,13.10
2018-09-17T20:16:21.123Z,13.10
2018-09-17T20:18:50.023Z,13.50
2018-09-17T20:21:18.870Z,14.10
2018-09-17T20:23:47.793Z,14.30
2018-09-17T20:26:16.595Z,14.20
2018-09-17T20:28:45.451Z,14.10
2018-09-17T20:31:14.320Z,14.40
2018-09-17T20:33:43.142Z,14.70
2018-09-17T20:36:12.021Z,14.70
2018-09-17T20:38:40.979Z,15.10
2018-09-17T20:41:09.745Z,15.10
2018-09-17T20:43:38.568Z,15.10
2018-09-17T20:46:07.489Z,15.00
2018-09-17T20:48:36.449Z,15.00
2018-09-17T20:51:05.320Z,14.80
2018-09-17T20:53:34.201Z,15.00
2018-09-17T20:56:03.039Z,15.50
2018-09-17T20:58:31.925Z,15.40
2018-09-17T21:01:00.868Z,15.10
2018-09-17T21:03:29.660Z,15.50
2018-09-17T21:05:58.470Z,14.90
2018-09-17T21:08:27.370Z,14.60
2018-09-17T21:10:56.277Z,14.20
2018-09-17T21:13:25.161Z,14.20
2018-09-17T21:15:53.936Z,14.10
2018-09-17T21:18:22.837Z,14.00
2018-09-17T21:20:51.764Z,13.90
2018-09-17T21:23:20.651Z,13.70
2018-09-17T21:25:49.509Z,13.40
2018-09-17T21:28:18.403Z,13.30
2018-09-17T21:30:47.302Z,13.20
2018-09-17T21:33:16.177Z,13.40
2018-09-17T21:35:45.038Z,13.60
2018-09-17T21:38:13.928Z,13.50
2018-09-17T21:40:42.877Z,13.70
2018-09-17T21:43:11.826Z,13.60
2018-09-17T21:45:40.648Z,13.60
2018-09-17T21:48:09.500Z,13.60
2018-09-17T21:50:38.388Z,13.60
2018-09-17T21:53:07.430Z,13.50
2018-09-17T21:55:36.309Z,13.80
2018-09-17T21:58:05.293Z,13.90
2018-09-17T22:00:39.373Z,14.10
2018-09-17T22:03:08.188Z,14.40
2018-09-17T22:05:37.012Z,14.50
2018-09-17T22:08:05.835Z,14.80
2018-09-17T22:10:34.711Z,15.10
2018-09-17T22:13:03.660Z,15.40
2018-09-17T22:15:32.499Z,15.50
2018-09-17T22:18:01.311Z,15.70
2018-09-17T22:20:30.183Z,15.80
2018-09-17T22:22:58.992Z,15.70
2018-09-17T22:25:27.889Z,16.20
2018-09-17T22:27:56.766Z,16.50
2018-09-17T22:30:25.605Z,16.70
2018-09-17T22:32:54.431Z,17.10
2018-09-17T22:35:23.337Z,17.30
2018-09-17T22:37:52.257Z,17.70
2018-09-17T22:40:21.148Z,17.90
2018-09-17T22:42:49.994Z,18.30
2018-09-17T22:45:18.867Z,18.50
2018-09-17T22:47:47.717Z,18.50
2018-09-17T22:50:16.628Z,18.90
2018-09-17T22:52:45.463Z,18.90
2018-09-17T22:55:14.290Z,19.10
2018-09-17T22:57:43.168Z,19.10
2018-09-17T23:00:12.096Z,19.40
2018-09-17T23:02:40.942Z,19.50
2018-09-17T23:05:09.892Z,19.60
2018-09-17T23:07:38.741Z,19.70
2018-09-17T23:10:08.680Z,19.60
2018-09-17T23:12:37.544Z,19.80
2018-09-17T23:15:06.407Z,20.00
2018-09-17T23:17:35.267Z,19.90
2018-09-17T23:20:04.297Z,20.10
2018-09-17T23:22:33.149Z,20.20
2018-09-17T23:25:02.012Z,20.30
2018-09-17T23:27:30.895Z,20.30
2018-09-17T23:29:59.772Z,20.50
2018-09-17T23:32:28.624Z,21.00
2018-09-17T23:34:57.434Z,21.10
2018-09-17T23:37:26.289Z,21.00
2018-09-17T23:39:55.179Z,21.00
2018-09-17T23:42:24.058Z,21.60
2018-09-17T23:44:52.980Z,21.60
2018-09-17T23:47:21.803Z,22.00
2018-09-17T23:49:50.714Z,22.20
2018-09-17T23:52:19.599Z,22.50
2018-09-17T23:54:48.472Z,22.60
2018-09-17T23:57:17.372Z,22.80
2018-09-17T23:59:46.235Z,23.00
